Rokkou — JD3010 — position and weather

sailwx.info

Track history (hours):
 
Tides and Currents Weather Stations Pressure Air Temp Water Temp Dewpoint Dewpoint Depression Visibility Wind Speed Wind Dir Waves Ship Positions

Rokkou

Last reported at 2018-Jan-20 10:55 UTC. Time now 2018-Jan-20 16:55 UTC.
Position N 34°57' E 139°44'.

Length 64 m; draft 3.5 m.

Type: Tanker. MMSI: 431001111.

Date/timePositionNaut miles runAvg speedWind from/ knotsBaromVisibWave heightAir tempDewpointWater temp
2018-Jan-20 10:55N 34°57' E 139°44'410.5
2018-Jan-20 10:30N 35°02' E 139°44'612.0
2018-Jan-20 10:00N 35°08' E 139°46'612.1
2018-Jan-20 09:30N 35°14' E 139°46'611.3
2018-Jan-20 09:00N 35°19' E 139°43'611.1
2018-Jan-20 08:31N 35°24' E 139°43'611.8
2018-Jan-20 08:00N 35°28' E 139°49'14 3.1
2018-Jan-20 03:36N 35°40' E 139°56'3 7.0
2018-Jan-20 03:06N 35°38' E 139°59'111.3
2018-Jan-20 03:00N 35°37' E 139°60'5 9.2
2018-Jan-20 02:30N 35°34' E 140°04'0 0.1
2018-Jan-20 02:00N 35°34' E 140°04'0 0.0
2018-Jan-20 01:28N 35°34' E 140°04'0 0.1
2018-Jan-20 01:00N 35°34' E 140°04'0 0.1
2018-Jan-20 00:30N 35°34' E 140°04'0 0.0
2018-Jan-20 00:00N 35°34' E 140°04'0 0.0
2018-Jan-19 23:30N 35°34' E 140°04'0 0.0
2018-Jan-19 23:00N 35°34' E 140°04'0 0.0
2018-Jan-19 22:30N 35°34' E 140°04'0 0.0
2018-Jan-19 22:00N 35°34' E 140°04'0 0.0
2018-Jan-19 21:30N 35°34' E 140°04'0 0.1
2018-Jan-19 21:00N 35°34' E 140°04'0 0.0
2018-Jan-19 20:28N 35°34' E 140°04'0 0.0
2018-Jan-19 20:00N 35°34' E 140°04'0 0.0
2018-Jan-19 19:30N 35°34' E 140°04'0 0.0
2018-Jan-19 19:00N 35°34' E 140°04'0 0.0
2018-Jan-19 18:30N 35°34' E 140°04'0 0.0
2018-Jan-19 18:00N 35°34' E 140°04'0 0.0
2018-Jan-19 17:30N 35°34' E 140°04'0 0.1
2018-Jan-19 17:00N 35°34' E 140°04'0 0.0
2018-Jan-19 16:30N 35°34' E 140°04'0 0.0
2018-Jan-19 16:00N 35°34' E 140°04'0 0.0
2018-Jan-19 15:30N 35°34' E 140°04'0 0.0
2018-Jan-19 14:58N 35°34' E 140°04'0 0.0
2018-Jan-19 14:30N 35°34' E 140°04'0 0.0
2018-Jan-19 14:00N 35°34' E 140°04'0 0.0
2018-Jan-19 13:29N 35°34' E 140°04'0 0.0
2018-Jan-19 13:00N 35°34' E 140°04'0 0.0
2018-Jan-19 12:30N 35°34' E 140°04'0 0.0
2018-Jan-19 12:00N 35°34' E 140°04'0 0.0
2018-Jan-19 11:30N 35°34' E 140°04'0 0.0
2018-Jan-19 11:00N 35°34' E 140°04'0 0.0
2018-Jan-19 10:30N 35°34' E 140°04'1 1.2
2018-Jan-19 10:00N 35°33' E 140°04'2 3.1
2018-Jan-19 09:30N 35°32' E 140°03'0 0.2
2018-Jan-19 08:59N 35°32' E 140°03'0 0.0
2018-Jan-19 08:24N 35°32' E 140°03'0 0.0
2018-Jan-19 07:58N 35°32' E 140°03'0 0.0
2018-Jan-19 07:27N 35°32' E 140°03'0 0.0
2018-Jan-19 06:57N 35°32' E 140°03'0 0.0
2018-Jan-19 06:24N 35°32' E 140°03'0 0.0
2018-Jan-19 06:00N 35°32' E 140°03'0 0.0
2018-Jan-19 05:21N 35°32' E 140°03'0 0.0
2018-Jan-19 04:51N 35°32' E 140°03'0 0.0
2018-Jan-19 03:51N 35°32' E 140°03'0 0.0
2018-Jan-19 01:30N 35°32' E 140°03'0 0.0
2018-Jan-19 00:50N 35°32' E 140°03'0 0.0
2018-Jan-19 00:08N 35°32' E 140°03'0 0.0
2018-Jan-18 23:37N 35°32' E 140°03'0 1.3
2018-Jan-18 23:21N 35°32' E 140°03'2 7.2
2018-Jan-18 23:00N 35°34' E 140°03'3 6.7
2018-Jan-18 22:30N 35°36' E 140°06'0 0.0
2018-Jan-18 22:00N 35°36' E 140°06'0 0.0
2018-Jan-18 21:30N 35°36' E 140°06'0 0.0
2018-Jan-18 21:00N 35°36' E 140°06'0 0.0
2018-Jan-18 20:30N 35°36' E 140°06'0 0.0
2018-Jan-18 20:00N 35°36' E 140°06'0 0.0
2018-Jan-18 19:30N 35°36' E 140°06'0 0.0
2018-Jan-18 19:00N 35°36' E 140°06'0 0.0
2018-Jan-18 18:30N 35°36' E 140°06'0 0.0
2018-Jan-18 18:00N 35°36' E 140°06'0 0.0
2018-Jan-18 17:30N 35°36' E 140°06'0 0.0
2018-Jan-18 17:00N 35°36' E 140°06'0 0.0
2018-Jan-18 16:30N 35°36' E 140°06'0 0.0
2018-Jan-18 16:00N 35°36' E 140°06'0 0.0
2018-Jan-18 15:30N 35°36' E 140°06'0 0.0
2018-Jan-18 15:00N 35°36' E 140°06'0 0.0
2018-Jan-18 14:30N 35°36' E 140°06'0 0.0
2018-Jan-18 14:00N 35°36' E 140°06'0 0.0
2018-Jan-18 13:30N 35°36' E 140°06'0 0.0
2018-Jan-18 13:00N 35°36' E 140°06'0 0.0
2018-Jan-18 12:30N 35°36' E 140°06'0 0.0
2018-Jan-18 12:00N 35°36' E 140°06'0 0.0
2018-Jan-18 11:30N 35°36' E 140°06'0 0.0
2018-Jan-18 11:00N 35°36' E 140°06'0 0.0
2018-Jan-18 10:30N 35°36' E 140°06'0 0.0
2018-Jan-18 10:00N 35°36' E 140°06'0 0.0
2018-Jan-18 09:30N 35°36' E 140°06'0 0.0
2018-Jan-18 09:00N 35°36' E 140°06'0 0.0
2018-Jan-18 08:30N 35°36' E 140°06'0 0.0
2018-Jan-18 08:00N 35°36' E 140°06'0 0.0
2018-Jan-18 07:30N 35°36' E 140°06'0 0.0
2018-Jan-18 07:00N 35°36' E 140°06'0 0.0
2018-Jan-18 06:30N 35°36' E 140°06'0 0.0
2018-Jan-18 06:00N 35°36' E 140°06'0 0.0
2018-Jan-18 05:30N 35°36' E 140°06'0 0.0
2018-Jan-18 05:00N 35°36' E 140°06'3 6.5
2018-Jan-18 04:30N 35°35' E 140°03'611.1
2018-Jan-18 03:59N 35°31' E 139°57'3 5.7
2018-Jan-18 03:30N 35°28' E 139°56'0 0.2
2018-Jan-18 03:00N 35°28' E 139°56'2 4.8
2018-Jan-18 02:30N 35°27' E 139°58'0 0.0
2018-Jan-18 02:00N 35°27' E 139°58'0 0.0
2018-Jan-18 01:30N 35°27' E 139°58'0 0.0
2018-Jan-18 01:00N 35°27' E 139°58'0 0.0
2018-Jan-18 00:00N 35°27' E 139°58'0 0.0
2018-Jan-17 23:57N 35°27' E 139°58'  
2018-Jan-11 17:44N 34°57' E 139°41'2 8.8
2018-Jan-11 17:29N 34°59' E 139°41'4 7.9
2018-Jan-11 17:00N 35°02' E 139°43'4 7.4
2018-Jan-11 16:30N 35°06' E 139°44'4 8.4
2018-Jan-11 16:00N 35°10' E 139°46'510.0
2018-Jan-11 15:30N 35°15' E 139°46'611.5
2018-Jan-11 15:00N 35°20' E 139°43'510.9
2018-Jan-11 14:30N 35°25' E 139°44'611.4
2018-Jan-11 14:00N 35°29' E 139°49'0 0.9
2018-Jan-11 13:30N 35°29' E 139°49'0 0.0
2018-Jan-11 13:00N 35°29' E 139°49'0 0.0
2018-Jan-11 12:30N 35°29' E 139°49'0 0.0
2018-Jan-11 12:00N 35°29' E 139°49'0 0.0
2018-Jan-11 11:30N 35°29' E 139°49'0 0.0
2018-Jan-11 11:00N 35°29' E 139°49'0 0.0
2018-Jan-11 10:30N 35°29' E 139°49'0 0.0
2018-Jan-11 10:00N 35°29' E 139°49'0 0.0
2018-Jan-11 09:30N 35°29' E 139°49'1 1.9
2018-Jan-11 09:00N 35°30' E 139°48'2 4.7
2018-Jan-11 08:29N 35°31' E 139°46'0 0.0
2018-Jan-11 07:58N 35°31' E 139°46'0 0.0
2018-Jan-11 07:28N 35°31' E 139°46'0 0.0
2018-Jan-11 06:59N 35°31' E 139°46'0 0.0
2018-Jan-11 06:28N 35°31' E 139°46'0 0.0
2018-Jan-11 05:57N 35°31' E 139°46'1 2.6
2018-Jan-11 05:30N 35°30' E 139°47'2 4.0
2018-Jan-11 05:00N 35°29' E 139°49'0 0.0
2018-Jan-11 04:30N 35°29' E 139°49'0 0.0
2018-Jan-11 04:00N 35°29' E 139°49'0 0.1
2018-Jan-11 03:30N 35°29' E 139°49'4 8.8
2018-Jan-11 03:00N 35°26' E 139°45'5 9.6
2018-Jan-11 02:30N 35°24' E 139°40'0 0.8
2018-Jan-11 02:00N 35°25' E 139°39'0 0.0
2018-Jan-11 01:30N 35°25' E 139°39'0 0.0
2018-Jan-11 01:00N 35°25' E 139°39'0 0.0
2018-Jan-11 00:30N 35°25' E 139°39'0 0.0
2018-Jan-11 00:00N 35°25' E 139°39'0 0.0
2018-Jan-10 23:30N 35°25' E 139°39'0 0.0
2018-Jan-10 23:00N 35°25' E 139°39'0 0.0
2018-Jan-10 22:30N 35°25' E 139°39'0 0.1
2018-Jan-10 22:00N 35°25' E 139°39'2 3.8
2018-Jan-10 21:30N 35°23' E 139°40'0 0.0
2018-Jan-10 21:00N 35°23' E 139°40'0 0.0
2018-Jan-10 20:30N 35°23' E 139°40'0 0.1
2018-Jan-10 20:00N 35°23' E 139°40'0 0.1
2018-Jan-10 19:31N 35°23' E 139°40'0 0.0
2018-Jan-10 19:00N 35°23' E 139°40'0 0.1
2018-Jan-10 18:30N 35°23' E 139°40'0 0.0
2018-Jan-10 18:00N 35°23' E 139°40'0 0.0
2018-Jan-10 17:30N 35°23' E 139°40'0 0.1
2018-Jan-10 17:00N 35°23' E 139°40'0 0.0
2018-Jan-10 16:30N 35°23' E 139°40'0 0.0
2018-Jan-10 16:00N 35°23' E 139°40'0 0.0
2018-Jan-10 15:30N 35°23' E 139°40'0 0.0
2018-Jan-10 15:00N 35°23' E 139°40'0 0.0
2018-Jan-10 14:30N 35°23' E 139°40'0 0.0
2018-Jan-10 14:00N 35°23' E 139°40'0 0.0
2018-Jan-10 13:30N 35°23' E 139°40'0 0.0
2018-Jan-10 13:00N 35°23' E 139°40'0 0.0
2018-Jan-10 12:30N 35°23' E 139°40'0 0.0
2018-Jan-10 12:01N 35°23' E 139°40'0 0.0
2018-Jan-10 11:30N 35°23' E 139°40'0 0.0
2018-Jan-10 11:00N 35°23' E 139°40'  
Track history (hours):
 
Tides and Currents Weather Stations Pressure Air Temp Water Temp Dewpoint Dewpoint Depression Visibility Wind Speed Wind Dir Waves Ship Positions

Rokkou

Last reported at 2018-Jan-20 10:55 UTC. Time now 2018-Jan-20 16:55 UTC.
Position N 34°57' E 139°44'.

Length 64 m; draft 3.5 m.

Type: Tanker. MMSI: 431001111.

Date/timePositionNaut miles runAvg speedWind from/ knotsBaromVisibWave heightAir tempDewpointWater temp
2018-Jan-20 10:55N 34°57' E 139°44'410.5
2018-Jan-20 10:30N 35°02' E 139°44'612.0
2018-Jan-20 10:00N 35°08' E 139°46'612.1
2018-Jan-20 09:30N 35°14' E 139°46'611.3
2018-Jan-20 09:00N 35°19' E 139°43'611.1
2018-Jan-20 08:31N 35°24' E 139°43'611.8
2018-Jan-20 08:00N 35°28' E 139°49'14 3.1
2018-Jan-20 03:36N 35°40' E 139°56'3 7.0
2018-Jan-20 03:06N 35°38' E 139°59'111.3
2018-Jan-20 03:00N 35°37' E 139°60'5 9.2
2018-Jan-20 02:30N 35°34' E 140°04'0 0.1
2018-Jan-20 02:00N 35°34' E 140°04'0 0.0
2018-Jan-20 01:28N 35°34' E 140°04'0 0.1
2018-Jan-20 01:00N 35°34' E 140°04'0 0.1
2018-Jan-20 00:30N 35°34' E 140°04'0 0.0
2018-Jan-20 00:00N 35°34' E 140°04'0 0.0
2018-Jan-19 23:30N 35°34' E 140°04'0 0.0
2018-Jan-19 23:00N 35°34' E 140°04'0 0.0
2018-Jan-19 22:30N 35°34' E 140°04'0 0.0
2018-Jan-19 22:00N 35°34' E 140°04'0 0.0
2018-Jan-19 21:30N 35°34' E 140°04'0 0.1
2018-Jan-19 21:00N 35°34' E 140°04'0 0.0
2018-Jan-19 20:28N 35°34' E 140°04'0 0.0
2018-Jan-19 20:00N 35°34' E 140°04'0 0.0
2018-Jan-19 19:30N 35°34' E 140°04'0 0.0
2018-Jan-19 19:00N 35°34' E 140°04'0 0.0
2018-Jan-19 18:30N 35°34' E 140°04'0 0.0
2018-Jan-19 18:00N 35°34' E 140°04'0 0.0
2018-Jan-19 17:30N 35°34' E 140°04'0 0.1
2018-Jan-19 17:00N 35°34' E 140°04'0 0.0
2018-Jan-19 16:30N 35°34' E 140°04'0 0.0
2018-Jan-19 16:00N 35°34' E 140°04'0 0.0
2018-Jan-19 15:30N 35°34' E 140°04'0 0.0
2018-Jan-19 14:58N 35°34' E 140°04'0 0.0
2018-Jan-19 14:30N 35°34' E 140°04'0 0.0
2018-Jan-19 14:00N 35°34' E 140°04'0 0.0
2018-Jan-19 13:29N 35°34' E 140°04'0 0.0
2018-Jan-19 13:00N 35°34' E 140°04'0 0.0
2018-Jan-19 12:30N 35°34' E 140°04'0 0.0
2018-Jan-19 12:00N 35°34' E 140°04'0 0.0
2018-Jan-19 11:30N 35°34' E 140°04'0 0.0
2018-Jan-19 11:00N 35°34' E 140°04'0 0.0
2018-Jan-19 10:30N 35°34' E 140°04'1 1.2
2018-Jan-19 10:00N 35°33' E 140°04'2 3.1
2018-Jan-19 09:30N 35°32' E 140°03'0 0.2
2018-Jan-19 08:59N 35°32' E 140°03'0 0.0
2018-Jan-19 08:24N 35°32' E 140°03'0 0.0
2018-Jan-19 07:58N 35°32' E 140°03'0 0.0
2018-Jan-19 07:27N 35°32' E 140°03'0 0.0
2018-Jan-19 06:57N 35°32' E 140°03'0 0.0
2018-Jan-19 06:24N 35°32' E 140°03'0 0.0
2018-Jan-19 06:00N 35°32' E 140°03'0 0.0
2018-Jan-19 05:21N 35°32' E 140°03'0 0.0
2018-Jan-19 04:51N 35°32' E 140°03'0 0.0
2018-Jan-19 03:51N 35°32' E 140°03'0 0.0
2018-Jan-19 01:30N 35°32' E 140°03'0 0.0
2018-Jan-19 00:50N 35°32' E 140°03'0 0.0
2018-Jan-19 00:08N 35°32' E 140°03'0 0.0
2018-Jan-18 23:37N 35°32' E 140°03'0 1.3
2018-Jan-18 23:21N 35°32' E 140°03'2 7.2
2018-Jan-18 23:00N 35°34' E 140°03'3 6.7
2018-Jan-18 22:30N 35°36' E 140°06'0 0.0
2018-Jan-18 22:00N 35°36' E 140°06'0 0.0
2018-Jan-18 21:30N 35°36' E 140°06'0 0.0
2018-Jan-18 21:00N 35°36' E 140°06'0 0.0
2018-Jan-18 20:30N 35°36' E 140°06'0 0.0
2018-Jan-18 20:00N 35°36' E 140°06'0 0.0
2018-Jan-18 19:30N 35°36' E 140°06'0 0.0
2018-Jan-18 19:00N 35°36' E 140°06'0 0.0
2018-Jan-18 18:30N 35°36' E 140°06'0 0.0
2018-Jan-18 18:00N 35°36' E 140°06'0 0.0
2018-Jan-18 17:30N 35°36' E 140°06'0 0.0
2018-Jan-18 17:00N 35°36' E 140°06'0 0.0
2018-Jan-18 16:30N 35°36' E 140°06'0 0.0
2018-Jan-18 16:00N 35°36' E 140°06'0 0.0
2018-Jan-18 15:30N 35°36' E 140°06'0 0.0
2018-Jan-18 15:00N 35°36' E 140°06'0 0.0
2018-Jan-18 14:30N 35°36' E 140°06'0 0.0
2018-Jan-18 14:00N 35°36' E 140°06'0 0.0
2018-Jan-18 13:30N 35°36' E 140°06'0 0.0
2018-Jan-18 13:00N 35°36' E 140°06'0 0.0
2018-Jan-18 12:30N 35°36' E 140°06'0 0.0
2018-Jan-18 12:00N 35°36' E 140°06'0 0.0
2018-Jan-18 11:30N 35°36' E 140°06'0 0.0
2018-Jan-18 11:00N 35°36' E 140°06'0 0.0
2018-Jan-18 10:30N 35°36' E 140°06'0 0.0
2018-Jan-18 10:00N 35°36' E 140°06'0 0.0
2018-Jan-18 09:30N 35°36' E 140°06'0 0.0
2018-Jan-18 09:00N 35°36' E 140°06'0 0.0
2018-Jan-18 08:30N 35°36' E 140°06'0 0.0
2018-Jan-18 08:00N 35°36' E 140°06'0 0.0
2018-Jan-18 07:30N 35°36' E 140°06'0 0.0
2018-Jan-18 07:00N 35°36' E 140°06'0 0.0
2018-Jan-18 06:30N 35°36' E 140°06'0 0.0
2018-Jan-18 06:00N 35°36' E 140°06'0 0.0
2018-Jan-18 05:30N 35°36' E 140°06'0 0.0
2018-Jan-18 05:00N 35°36' E 140°06'3 6.5
2018-Jan-18 04:30N 35°35' E 140°03'611.1
2018-Jan-18 03:59N 35°31' E 139°57'3 5.7
2018-Jan-18 03:30N 35°28' E 139°56'0 0.2
2018-Jan-18 03:00N 35°28' E 139°56'2 4.8
2018-Jan-18 02:30N 35°27' E 139°58'0 0.0
2018-Jan-18 02:00N 35°27' E 139°58'0 0.0
2018-Jan-18 01:30N 35°27' E 139°58'0 0.0
2018-Jan-18 01:00N 35°27' E 139°58'0 0.0
2018-Jan-18 00:00N 35°27' E 139°58'0 0.0
2018-Jan-17 23:57N 35°27' E 139°58'  
2018-Jan-11 17:44N 34°57' E 139°41'2 8.8
2018-Jan-11 17:29N 34°59' E 139°41'4 7.9
2018-Jan-11 17:00N 35°02' E 139°43'4 7.4
2018-Jan-11 16:30N 35°06' E 139°44'4 8.4
2018-Jan-11 16:00N 35°10' E 139°46'510.0
2018-Jan-11 15:30N 35°15' E 139°46'611.5
2018-Jan-11 15:00N 35°20' E 139°43'510.9
2018-Jan-11 14:30N 35°25' E 139°44'611.4
2018-Jan-11 14:00N 35°29' E 139°49'0 0.9
2018-Jan-11 13:30N 35°29' E 139°49'0 0.0
2018-Jan-11 13:00N 35°29' E 139°49'0 0.0
2018-Jan-11 12:30N 35°29' E 139°49'0 0.0
2018-Jan-11 12:00N 35°29' E 139°49'0 0.0
2018-Jan-11 11:30N 35°29' E 139°49'0 0.0
2018-Jan-11 11:00N 35°29' E 139°49'0 0.0
2018-Jan-11 10:30N 35°29' E 139°49'0 0.0
2018-Jan-11 10:00N 35°29' E 139°49'0 0.0
2018-Jan-11 09:30N 35°29' E 139°49'1 1.9
2018-Jan-11 09:00N 35°30' E 139°48'2 4.7
2018-Jan-11 08:29N 35°31' E 139°46'0 0.0
2018-Jan-11 07:58N 35°31' E 139°46'0 0.0
2018-Jan-11 07:28N 35°31' E 139°46'0 0.0
2018-Jan-11 06:59N 35°31' E 139°46'0 0.0
2018-Jan-11 06:28N 35°31' E 139°46'0 0.0
2018-Jan-11 05:57N 35°31' E 139°46'1 2.6
2018-Jan-11 05:30N 35°30' E 139°47'2 4.0
2018-Jan-11 05:00N 35°29' E 139°49'0 0.0
2018-Jan-11 04:30N 35°29' E 139°49'0 0.0
2018-Jan-11 04:00N 35°29' E 139°49'0 0.1
2018-Jan-11 03:30N 35°29' E 139°49'4 8.8
2018-Jan-11 03:00N 35°26' E 139°45'5 9.6
2018-Jan-11 02:30N 35°24' E 139°40'0 0.8
2018-Jan-11 02:00N 35°25' E 139°39'0 0.0
2018-Jan-11 01:30N 35°25' E 139°39'0 0.0
2018-Jan-11 01:00N 35°25' E 139°39'0 0.0
2018-Jan-11 00:30N 35°25' E 139°39'0 0.0
2018-Jan-11 00:00N 35°25' E 139°39'0 0.0
2018-Jan-10 23:30N 35°25' E 139°39'0 0.0
2018-Jan-10 23:00N 35°25' E 139°39'0 0.0
2018-Jan-10 22:30N 35°25' E 139°39'0 0.1
2018-Jan-10 22:00N 35°25' E 139°39'2 3.8
2018-Jan-10 21:30N 35°23' E 139°40'0 0.0
2018-Jan-10 21:00N 35°23' E 139°40'0 0.0
2018-Jan-10 20:30N 35°23' E 139°40'0 0.1
2018-Jan-10 20:00N 35°23' E 139°40'0 0.1
2018-Jan-10 19:31N 35°23' E 139°40'0 0.0
2018-Jan-10 19:00N 35°23' E 139°40'0 0.1
2018-Jan-10 18:30N 35°23' E 139°40'0 0.0
2018-Jan-10 18:00N 35°23' E 139°40'0 0.0
2018-Jan-10 17:30N 35°23' E 139°40'0 0.1
2018-Jan-10 17:00N 35°23' E 139°40'0 0.0
2018-Jan-10 16:30N 35°23' E 139°40'0 0.0
2018-Jan-10 16:00N 35°23' E 139°40'0 0.0
2018-Jan-10 15:30N 35°23' E 139°40'0 0.0
2018-Jan-10 15:00N 35°23' E 139°40'0 0.0
2018-Jan-10 14:30N 35°23' E 139°40'0 0.0
2018-Jan-10 14:00N 35°23' E 139°40'0 0.0
2018-Jan-10 13:30N 35°23' E 139°40'0 0.0
2018-Jan-10 13:00N 35°23' E 139°40'0 0.0
2018-Jan-10 12:30N 35°23' E 139°40'0 0.0
2018-Jan-10 12:01N 35°23' E 139°40'0 0.0
2018-Jan-10 11:30N 35°23' E 139°40'0 0.0
2018-Jan-10 11:00N 35°23' E 139°40'  

Dump ship's entire track history